Time;durP1;ratioP1;P1;durP2;ratioP2;P2;SDS_P1;SDS_P2;PMS_P1;PMS_P2;Temp;Humidity;BMP_temperature;BMP_pressure;BME280_temperature;BME280_humidity;BME280_pressure;Samples;Min_cycle;Max_cycle;Signal;HPM_P1;HPM_P2
2023/06/21 00:00:51;;;;;;;39.90;36.80;;;23.20;99.90;;;;;;5056905;28;20467;-78
2023/06/21 00:03:19;;;;;;;44.73;41.10;;;23.20;99.90;;;;;;5055616;28;20475;-77
2023/06/21 00:05:47;;;;;;;39.83;36.60;;;23.20;99.90;;;;;;5056725;28;20499;-79
2023/06/21 00:08:14;;;;;;;41.40;37.73;;;23.20;99.90;;;;;;5056463;28;20962;-78
2023/06/21 00:10:44;;;;;;;37.97;35.00;;;23.20;99.90;;;;;;5056962;28;20463;-79
2023/06/21 00:13:11;;;;;;;40.83;37.53;;;23.20;99.90;;;;;;5056304;28;20535;-79
2023/06/21 00:15:38;;;;;;;40.07;37.07;;;23.10;99.90;;;;;;5057014;28;20785;-78
2023/06/21 00:18:04;;;;;;;38.50;35.60;;;23.10;99.90;;;;;;5056564;28;20467;-78
2023/06/21 00:20:34;;;;;;;39.43;36.33;;;23.10;99.90;;;;;;5056422;28;20489;-77
2023/06/21 00:23:01;;;;;;;38.43;35.40;;;23.10;99.90;;;;;;5056287;28;20479;-78
2023/06/21 00:25:28;;;;;;;35.37;32.37;;;23.10;99.90;;;;;;5055718;28;20554;-77
2023/06/21 00:27:55;;;;;;;38.40;35.40;;;23.00;99.90;;;;;;5056180;28;20973;-78
2023/06/21 00:30:22;;;;;;;39.63;36.57;;;23.00;99.90;;;;;;5056144;28;20458;-79
2023/06/21 00:32:49;;;;;;;37.90;35.00;;;23.00;99.90;;;;;;5056121;28;20471;-78
2023/06/21 00:35:18;;;;;;;38.00;34.90;;;23.00;99.90;;;;;;5055448;28;20479;-77
2023/06/21 00:37:47;;;;;;;40.93;37.53;;;23.00;99.90;;;;;;5056526;28;20498;-77
2023/06/21 00:40:14;;;;;;;38.60;35.50;;;22.90;99.90;;;;;;5055795;28;20528;-78
2023/06/21 00:42:41;;;;;;;40.77;37.43;;;22.90;99.90;;;;;;5056286;28;20475;-77
2023/06/21 00:45:15;;;;;;;36.27;33.37;;;22.90;99.90;;;;;;5055304;28;20604;-78
2023/06/21 00:47:42;;;;;;;38.33;35.13;;;22.90;99.90;;;;;;5056079;28;20532;-78
2023/06/21 00:50:11;;;;;;;39.23;36.13;;;22.90;99.90;;;;;;5054540;28;20474;-77
2023/06/21 00:52:51;;;;;;;36.87;33.90;;;22.90;99.90;;;;;;5055659;28;20475;-78
2023/06/21 00:55:21;;;;;;;38.33;35.23;;;22.90;99.90;;;;;;5055191;28;20503;-76
2023/06/21 00:57:49;;;;;;;39.27;36.07;;;22.80;99.90;;;;;;5055547;28;20883;-76
2023/06/21 01:00:20;;;;;;;39.90;36.73;;;22.80;99.90;;;;;;5055192;28;20472;-76
2023/06/21 01:02:47;;;;;;;38.53;35.40;;;22.80;99.90;;;;;;5055618;28;20479;-76
2023/06/21 01:05:16;;;;;;;42.53;39.00;;;22.80;99.90;;;;;;5055201;28;20557;-77
2023/06/21 01:07:49;;;;;;;37.10;34.20;;;22.80;99.90;;;;;;5055614;28;20801;-76
2023/06/21 01:10:32;;;;;;;38.80;35.70;;;22.80;99.90;;;;;;5055697;28;20541;-77
2023/06/21 01:13:10;;;;;;;36.53;33.63;;;22.80;99.90;;;;;;5055754;28;20537;-76
2023/06/21 01:15:43;;;;;;;36.30;33.50;;;22.80;99.90;;;;;;5055271;28;20489;-76
2023/06/21 01:18:14;;;;;;;37.27;34.40;;;22.80;99.90;;;;;;5071357;28;20948;-76
2023/06/21 01:20:44;;;;;;;35.10;32.40;;;22.80;99.90;;;;;;5075103;28;20469;-78
2023/06/21 01:23:33;;;;;;;38.73;35.63;;;22.80;99.90;;;;;;5064390;28;20478;-78
2023/06/21 01:26:12;;;;;;;37.50;34.50;;;22.80;99.90;;;;;;5075308;28;20968;-78
2023/06/21 01:29:11;;;;;;;37.53;34.60;;;22.80;99.90;;;;;;5075535;28;20466;-78
2023/06/21 01:31:42;;;;;;;39.17;36.07;;;22.80;99.90;;;;;;5070633;28;20861;-76
2023/06/21 01:34:12;;;;;;;37.80;34.83;;;22.70;99.90;;;;;;5054768;28;20903;-76
2023/06/21 01:36:40;;;;;;;35.47;32.73;;;22.80;99.90;;;;;;5054919;28;20537;-77
2023/06/21 01:39:09;;;;;;;37.47;34.47;;;22.80;99.90;;;;;;5054933;28;20463;-79
2023/06/21 01:41:36;;;;;;;36.90;34.00;;;22.80;99.90;;;;;;5055010;28;20463;-78
2023/06/21 01:44:07;;;;;;;34.57;31.97;;;22.80;99.90;;;;;;5054293;28;20472;-78
2023/06/21 01:46:34;;;;;;;34.50;31.90;;;22.80;99.90;;;;;;5054850;28;20500;-77
2023/06/21 01:49:07;;;;;;;37.53;34.50;;;22.80;99.90;;;;;;5054476;28;20469;-77
2023/06/21 01:51:36;;;;;;;39.10;36.00;;;22.80;99.90;;;;;;5054794;28;20471;-77
2023/06/21 01:54:03;;;;;;;35.03;32.27;;;22.80;99.90;;;;;;5054292;28;20478;-78
2023/06/21 01:56:31;;;;;;;35.63;32.83;;;22.80;99.90;;;;;;5054810;28;20472;-77
2023/06/21 01:58:59;;;;;;;36.30;33.50;;;22.80;99.90;;;;;;5053511;28;21131;-79
2023/06/21 02:01:28;;;;;;;33.00;30.30;;;22.80;99.90;;;;;;5054022;28;20469;-79
2023/06/21 02:03:59;;;;;;;33.37;30.77;;;22.80;99.90;;;;;;5053329;28;20478;-79
2023/06/21 02:06:33;;;;;;;32.70;30.20;;;22.80;99.90;;;;;;5053695;28;20486;-79
2023/06/21 02:09:05;;;;;;;32.87;30.17;;;22.80;99.90;;;;;;5053637;28;20785;-77
2023/06/21 02:11:33;;;;;;;32.37;29.83;;;22.80;99.90;;;;;;5054389;28;20495;-77
2023/06/21 02:14:00;;;;;;;31.37;28.97;;;22.90;99.90;;;;;;5053828;28;20463;-78
2023/06/21 02:16:37;;;;;;;34.70;32.00;;;22.90;99.90;;;;;;5054255;28;20475;-77
2023/06/21 02:19:05;;;;;;;34.50;31.70;;;22.90;99.90;;;;;;5054136;28;20543;-77
2023/06/21 02:21:33;;;;;;;31.63;29.03;;;22.90;99.90;;;;;;5054174;28;20483;-77
2023/06/21 02:24:01;;;;;;;32.07;29.47;;;22.90;99.90;;;;;;5053745;28;20474;-79
2023/06/21 02:26:28;;;;;;;34.40;31.57;;;22.90;99.90;;;;;;5053736;28;20829;-77
2023/06/21 02:28:57;;;;;;;34.83;31.80;;;22.90;99.90;;;;;;5053491;28;20467;-77
2023/06/21 02:31:24;;;;;;;34.20;31.47;;;22.90;99.90;;;;;;5054217;28;20487;-78
2023/06/21 02:33:51;;;;;;;35.37;32.47;;;22.90;99.90;;;;;;5054271;28;20550;-80
2023/06/21 02:36:19;;;;;;;31.10;28.70;;;22.90;99.90;;;;;;5053145;28;20476;-78
2023/06/21 02:38:48;;;;;;;34.47;31.57;;;22.90;99.90;;;;;;5054277;28;20455;-77
2023/06/21 02:41:15;;;;;;;33.67;30.97;;;22.90;99.90;;;;;;5053616;28;20479;-77
2023/06/21 02:43:42;;;;;;;32.90;30.10;;;22.80;99.90;;;;;;5054372;28;20618;-77
2023/06/21 02:46:10;;;;;;;34.17;31.40;;;22.90;99.90;;;;;;5053019;28;20505;-77
2023/06/21 02:48:37;;;;;;;33.60;30.93;;;22.80;99.90;;;;;;5054187;28;20475;-78
2023/06/21 02:51:04;;;;;;;31.57;29.17;;;22.80;99.90;;;;;;5053958;28;20471;-77
2023/06/21 02:53:30;;;;;;;37.80;34.70;;;22.80;99.90;;;;;;5054444;28;20467;-78
2023/06/21 02:56:00;;;;;;;32.77;30.07;;;22.80;99.90;;;;;;5053087;28;20609;-79
2023/06/21 02:58:26;;;;;;;33.03;30.43;;;22.80;99.90;;;;;;5052517;28;21054;-78
2023/06/21 03:00:53;;;;;;;31.80;29.27;;;22.70;99.90;;;;;;5053687;28;20482;-78
2023/06/21 03:03:20;;;;;;;32.13;29.67;;;22.70;99.90;;;;;;5053512;28;20504;-76
2023/06/21 03:05:47;;;;;;;31.40;28.90;;;22.70;99.90;;;;;;5052739;28;20529;-78
2023/06/21 03:08:15;;;;;;;31.27;28.87;;;22.70;99.90;;;;;;5052803;28;20551;-76
2023/06/21 03:10:42;;;;;;;30.20;27.80;;;22.70;99.90;;;;;;5043880;28;20476;-77
2023/06/21 03:13:10;;;;;;;30.90;28.50;;;22.70;99.90;;;;;;5051941;28;20491;-78
2023/06/21 03:15:37;;;;;;;29.83;27.63;;;22.70;99.90;;;;;;5053519;28;20505;-77
2023/06/21 03:18:04;;;;;;;31.87;29.40;;;22.70;99.90;;;;;;5055537;28;20477;-76
2023/06/21 03:20:31;;;;;;;31.53;29.13;;;22.70;99.90;;;;;;5058773;28;20486;-78
2023/06/21 03:22:58;;;;;;;31.33;28.93;;;22.70;99.90;;;;;;5054381;28;20475;-78
2023/06/21 03:25:28;;;;;;;31.57;29.10;;;22.70;99.90;;;;;;5053787;28;20471;-78
2023/06/21 03:27:59;;;;;;;35.87;33.00;;;22.70;99.90;;;;;;5068521;28;20569;-77
2023/06/21 03:30:27;;;;;;;36.63;33.70;;;22.70;99.90;;;;;;5072762;28;20454;-77
2023/06/21 03:32:54;;;;;;;32.97;30.47;;;22.70;99.90;;;;;;5073385;28;20831;-77
2023/06/21 03:35:22;;;;;;;34.93;32.23;;;22.70;99.90;;;;;;5072178;28;20470;-78
2023/06/21 03:37:50;;;;;;;31.83;29.30;;;22.70;99.90;;;;;;5072571;28;20470;-77
2023/06/21 03:40:17;;;;;;;34.77;31.77;;;22.70;99.90;;;;;;5072958;28;20487;-77
2023/06/21 03:42:45;;;;;;;38.33;34.93;;;22.70;99.90;;;;;;5073215;28;20464;-77
2023/06/21 03:45:12;;;;;;;36.50;33.50;;;22.70;99.90;;;;;;5072272;28;20481;-78
2023/06/21 03:47:43;;;;;;;44.57;40.83;;;22.70;99.90;;;;;;5073487;28;20802;-78
2023/06/21 03:50:11;;;;;;;40.97;37.50;;;22.70;99.90;;;;;;5072726;28;21036;-78
2023/06/21 03:52:39;;;;;;;35.77;32.97;;;22.70;99.90;;;;;;5073062;28;20477;-79
2023/06/21 03:55:07;;;;;;;35.87;32.90;;;22.70;99.90;;;;;;5072778;28;20478;-78
2023/06/21 03:57:34;;;;;;;38.83;35.73;;;22.70;99.90;;;;;;5072985;28;20462;-77
2023/06/21 04:00:02;;;;;;;32.97;30.47;;;22.70;99.90;;;;;;5073153;28;20988;-78
2023/06/21 04:02:29;;;;;;;35.23;32.33;;;22.70;99.90;;;;;;5072837;28;20471;-77
2023/06/21 04:04:57;;;;;;;32.47;29.90;;;22.70;99.90;;;;;;5072367;28;20526;-78
2023/06/21 04:07:24;;;;;;;33.00;30.50;;;22.80;99.90;;;;;;5072135;28;20463;-78
2023/06/21 04:09:51;;;;;;;30.03;27.70;;;22.80;99.90;;;;;;5072979;28;20596;-77
2023/06/21 04:12:18;;;;;;;32.70;30.20;;;22.80;99.90;;;;;;5072508;28;20462;-78
2023/06/21 04:14:45;;;;;;;32.03;29.43;;;22.80;99.90;;;;;;5072750;28;20463;-78
2023/06/21 04:17:12;;;;;;;31.57;29.10;;;22.80;99.90;;;;;;5072453;28;20527;-77
2023/06/21 04:19:40;;;;;;;31.67;29.27;;;22.80;99.90;;;;;;5073012;28;20958;-77
2023/06/21 04:22:09;;;;;;;32.27;29.77;;;22.80;99.90;;;;;;5072508;28;20485;-78
2023/06/21 04:24:40;;;;;;;31.70;29.20;;;22.80;99.90;;;;;;5072677;28;20460;-79
2023/06/21 04:27:07;;;;;;;34.87;32.27;;;22.80;99.90;;;;;;5076181;28;20505;-78
2023/06/21 04:29:40;;;;;;;31.50;29.10;;;22.90;99.90;;;;;;5075834;28;20458;-78
2023/06/21 04:32:08;;;;;;;34.30;31.60;;;22.90;99.90;;;;;;5076396;28;20463;-78
2023/06/21 04:34:35;;;;;;;38.93;35.77;;;22.90;99.90;;;;;;5075435;28;20473;-77
2023/06/21 04:37:05;;;;;;;32.93;30.43;;;22.90;99.90;;;;;;5075818;28;20535;-78
2023/06/21 04:39:34;;;;;;;37.47;34.27;;;22.90;99.90;;;;;;5075912;28;20477;-79
2023/06/21 04:42:02;;;;;;;35.00;32.30;;;22.90;99.90;;;;;;5076268;28;20470;-79
2023/06/21 04:44:29;;;;;;;35.43;32.43;;;22.90;99.90;;;;;;5075893;28;20952;-76
2023/06/21 04:47:00;;;;;;;37.43;34.43;;;22.90;99.90;;;;;;5077171;28;20524;-76
2023/06/21 04:49:27;;;;;;;34.00;31.40;;;23.00;99.90;;;;;;5077664;28;20873;-77
2023/06/21 04:51:58;;;;;;;35.17;32.57;;;23.00;99.90;;;;;;5077694;28;20464;-77
2023/06/21 04:54:25;;;;;;;34.50;31.83;;;23.00;99.90;;;;;;5076013;28;20474;-76
2023/06/21 04:56:53;;;;;;;37.70;34.77;;;23.00;99.90;;;;;;5085423;28;20543;-78
2023/06/21 04:59:20;;;;;;;49.00;45.00;;;23.00;99.90;;;;;;5075851;28;20535;-78
2023/06/21 05:01:48;;;;;;;44.70;41.00;;;23.10;99.90;;;;;;5068445;28;20493;-79
2023/06/21 05:04:15;;;;;;;40.77;37.47;;;23.10;99.90;;;;;;5077438;28;20532;-79
2023/06/21 05:06:42;;;;;;;42.83;39.17;;;23.10;99.90;;;;;;5075183;28;20530;-77
2023/06/21 05:09:10;;;;;;;42.50;39.10;;;23.10;99.90;;;;;;5066585;28;20466;-78
2023/06/21 05:11:37;;;;;;;42.70;39.33;;;23.20;99.90;;;;;;5074867;28;20469;-79
2023/06/21 05:14:06;;;;;;;45.53;41.93;;;23.20;99.90;;;;;;5075617;28;21011;-78
2023/06/21 05:16:33;;;;;;;46.00;42.50;;;23.30;99.90;;;;;;5074073;28;20502;-78
2023/06/21 05:19:01;;;;;;;46.43;42.73;;;23.30;99.90;;;;;;5075729;28;20493;-77
2023/06/21 05:21:28;;;;;;;43.00;39.53;;;23.40;99.90;;;;;;5073286;28;21029;-77
2023/06/21 05:23:55;;;;;;;47.43;43.73;;;23.40;99.90;;;;;;5075618;28;20528;-78
2023/06/21 05:26:22;;;;;;;45.83;42.13;;;23.40;99.90;;;;;;5074993;28;20532;-80
2023/06/21 05:28:49;;;;;;;42.90;39.30;;;23.50;99.90;;;;;;5075249;28;20455;-79
2023/06/21 05:31:18;;;;;;;46.73;43.03;;;23.50;99.90;;;;;;5075157;28;20528;-80
2023/06/21 05:33:45;;;;;;;43.07;39.57;;;23.50;99.90;;;;;;5074964;28;20822;-80
2023/06/21 05:36:12;;;;;;;43.73;40.23;;;23.50;99.90;;;;;;5074835;28;20490;-78
2023/06/21 05:38:39;;;;;;;42.70;39.30;;;23.60;99.90;;;;;;5075036;28;20543;-79
2023/06/21 05:41:12;;;;;;;44.43;40.93;;;23.60;99.90;;;;;;5075213;28;20531;-78
2023/06/21 05:43:39;;;;;;;43.77;40.17;;;23.70;99.90;;;;;;5074884;28;20551;-77
2023/06/21 05:46:07;;;;;;;41.90;38.50;;;23.70;99.90;;;;;;5075327;28;20854;-78
2023/06/21 05:48:35;;;;;;;40.70;37.50;;;23.80;99.90;;;;;;5075134;28;20531;-77
2023/06/21 05:51:09;;;;;;;42.03;38.67;;;23.80;99.90;;;;;;5074699;28;20819;-77
2023/06/21 05:53:56;;;;;;;37.40;34.40;;;23.90;99.90;;;;;;5074246;28;20471;-79
2023/06/21 05:56:26;;;;;;;39.40;36.20;;;24.00;99.90;;;;;;5074673;28;20473;-79
2023/06/21 05:58:53;;;;;;;46.23;42.53;;;24.00;99.90;;;;;;5063021;28;20459;-78
2023/06/21 06:01:22;;;;;;;41.60;38.40;;;24.00;99.90;;;;;;5061200;28;20466;-77
2023/06/21 06:03:53;;;;;;;43.87;40.40;;;24.10;99.90;;;;;;5073929;28;20924;-77
2023/06/21 06:06:20;;;;;;;44.03;40.63;;;24.10;99.90;;;;;;5074085;28;20466;-79
2023/06/21 06:08:48;;;;;;;43.50;39.80;;;24.10;99.90;;;;;;5073937;28;20522;-76
2023/06/21 06:11:15;;;;;;;48.83;44.73;;;24.10;99.90;;;;;;5074702;28;20462;-77
2023/06/21 06:13:42;;;;;;;45.93;42.23;;;24.10;99.90;;;;;;5073474;28;20477;-79
2023/06/21 06:16:13;;;;;;;39.93;36.73;;;24.10;99.90;;;;;;5074566;28;20992;-77
2023/06/21 06:18:40;;;;;;;43.37;39.77;;;24.10;99.90;;;;;;5073938;28;20539;-78
2023/06/21 06:21:09;;;;;;;39.10;35.90;;;24.10;99.90;;;;;;5074053;28;20459;-77
2023/06/21 06:23:38;;;;;;;40.37;37.10;;;24.20;99.90;;;;;;5073501;28;20466;-78
2023/06/21 06:26:06;;;;;;;40.90;37.50;;;24.20;99.90;;;;;;5074263;28;20550;-77
2023/06/21 06:28:33;;;;;;;40.77;37.27;;;24.20;99.90;;;;;;5073683;28;20474;-80
2023/06/21 06:31:00;;;;;;;43.00;39.47;;;24.30;99.90;;;;;;5074220;28;20540;-77
2023/06/21 06:33:27;;;;;;;42.67;39.07;;;24.40;99.90;;;;;;5073531;28;20950;-78
2023/06/21 06:35:57;;;;;;;42.20;38.70;;;24.60;99.90;;;;;;5073563;28;20497;-78
2023/06/21 06:38:27;;;;;;;37.27;34.37;;;24.70;99.90;;;;;;5074304;28;20813;-79
2023/06/21 06:40:59;;;;;;;41.13;37.83;;;24.80;99.90;;;;;;5063257;28;20478;-77
2023/06/21 06:43:26;;;;;;;42.67;39.33;;;24.90;99.90;;;;;;5073456;28;20855;-77
2023/06/21 06:46:05;;;;;;;42.63;39.13;;;25.10;99.90;;;;;;5062290;28;20539;-77
2023/06/21 06:48:32;;;;;;;37.57;34.57;;;25.20;99.90;;;;;;5072700;28;20470;-77
2023/06/21 06:50:59;;;;;;;37.47;34.57;;;25.30;99.90;;;;;;5072652;28;20485;-78
2023/06/21 06:53:28;;;;;;;38.40;35.40;;;25.40;99.90;;;;;;5073107;28;20458;-79
2023/06/21 06:55:55;;;;;;;34.00;31.47;;;25.50;99.90;;;;;;5073246;28;20470;-78
2023/06/21 06:58:23;;;;;;;36.20;33.10;;;25.50;99.90;;;;;;5073910;28;20470;-79
2023/06/21 07:00:50;;;;;;;34.67;31.97;;;25.60;99.90;;;;;;5072821;28;20873;-77
2023/06/21 07:03:17;;;;;;;33.97;31.30;;;25.70;99.90;;;;;;5073787;28;20470;-79
2023/06/21 07:05:45;;;;;;;34.63;32.00;;;25.80;99.90;;;;;;5073632;28;20462;-77
2023/06/21 07:08:14;;;;;;;31.93;29.33;;;25.90;99.90;;;;;;5063022;28;20509;-78
2023/06/21 07:10:45;;;;;;;32.23;29.73;;;26.10;99.90;;;;;;5072811;28;20467;-78
2023/06/21 07:13:12;;;;;;;30.97;28.57;;;26.20;99.90;;;;;;5052681;28;20509;-79
2023/06/21 07:15:39;;;;;;;29.73;27.33;;;26.30;99.90;;;;;;5053086;28;20472;-79
2023/06/21 07:18:06;;;;;;;29.13;26.73;;;26.40;99.90;;;;;;5063307;28;20474;-79
2023/06/21 07:20:35;;;;;;;28.80;26.47;;;26.40;99.90;;;;;;5073489;28;20866;-79
2023/06/21 07:23:06;;;;;;;27.60;25.40;;;26.60;99.90;;;;;;5063253;28;20521;-79
2023/06/21 07:25:33;;;;;;;29.67;27.23;;;26.60;99.90;;;;;;5072970;28;20514;-79
2023/06/21 07:28:02;;;;;;;26.27;24.27;;;26.80;99.90;;;;;;5072472;28;20484;-79
2023/06/21 07:30:29;;;;;;;26.07;24.03;;;26.80;99.90;;;;;;5072295;28;20474;-78
2023/06/21 07:32:56;;;;;;;28.83;26.57;;;26.80;99.90;;;;;;5072980;28;20814;-78
2023/06/21 07:35:31;;;;;;;27.20;24.80;;;26.80;99.90;;;;;;5071753;28;20871;-79
2023/06/21 07:37:58;;;;;;;24.80;22.90;;;26.80;99.90;;;;;;5061987;28;21097;-77
2023/06/21 07:40:25;;;;;;;23.57;21.77;;;26.90;99.90;;;;;;5071916;28;20470;-76
2023/06/21 07:42:52;;;;;;;23.83;22.03;;;26.90;99.90;;;;;;5073417;28;20467;-76
2023/06/21 07:45:23;;;;;;;25.67;23.60;;;27.00;99.90;;;;;;5070996;28;20769;-80
2023/06/21 07:47:50;;;;;;;23.00;21.23;;;27.10;99.90;;;;;;5073046;28;20825;-78
2023/06/21 07:50:17;;;;;;;23.27;21.33;;;27.00;99.90;;;;;;5071924;28;20512;-76
2023/06/21 07:52:53;;;;;;;23.17;21.07;;;27.10;99.90;;;;;;5062391;28;20552;-78
2023/06/21 07:55:20;;;;;;;20.57;19.00;;;27.10;99.90;;;;;;5071201;28;20470;-78
2023/06/21 07:57:50;;;;;;;25.60;23.60;;;27.20;99.90;;;;;;5073036;28;21047;-76
2023/06/21 08:00:21;;;;;;;23.33;21.53;;;27.20;99.90;;;;;;5064704;28;20458;-76
2023/06/21 08:02:51;;;;;;;24.03;22.20;;;27.20;99.90;;;;;;5076297;28;20467;-77
2023/06/21 08:05:22;;;;;;;22.07;20.37;;;27.30;99.90;;;;;;5076282;28;20839;-77
2023/06/21 08:07:49;;;;;;;27.03;24.83;;;27.40;99.90;;;;;;5076864;28;20500;-76
2023/06/21 08:10:16;;;;;;;23.83;22.03;;;27.40;99.90;;;;;;5075651;28;20469;-77
2023/06/21 08:12:45;;;;;;;20.53;18.87;;;27.60;99.90;;;;;;5076706;28;20812;-76
2023/06/21 08:15:20;;;;;;;20.90;19.30;;;27.70;99.90;;;;;;5076127;28;20542;-77
2023/06/21 08:17:49;;;;;;;19.07;17.67;;;27.80;99.90;;;;;;5076652;28;20480;-77
2023/06/21 08:20:18;;;;;;;19.07;17.73;;;27.90;99.90;;;;;;5065514;28;20964;-78
2023/06/21 08:22:47;;;;;;;19.20;17.83;;;28.10;99.90;;;;;;5076529;28;20463;-77
2023/06/21 08:25:14;;;;;;;20.73;19.17;;;28.30;99.90;;;;;;5075921;28;20474;-80
2023/06/21 08:27:43;;;;;;;20.77;19.20;;;28.40;99.90;;;;;;5076526;28;20520;-78
2023/06/21 08:30:11;;;;;;;18.50;17.00;;;28.50;99.90;;;;;;5076655;28;20467;-78
2023/06/21 08:32:40;;;;;;;17.63;16.30;;;28.60;99.90;;;;;;5056647;28;20517;-78
2023/06/21 08:35:12;;;;;;;22.30;20.60;;;28.70;99.90;;;;;;5071145;28;20540;-78
2023/06/21 08:37:43;;;;;;;21.70;19.77;;;28.70;99.90;;;;;;5065738;28;20496;-77
2023/06/21 08:40:16;;;;;;;18.30;16.80;;;28.90;99.90;;;;;;5075757;28;20470;-77
2023/06/21 08:42:43;;;;;;;19.00;17.57;;;28.80;99.90;;;;;;5066848;28;20527;-78
2023/06/21 08:45:10;;;;;;;18.90;17.40;;;28.80;99.90;;;;;;5075644;28;20474;-78
2023/06/21 08:47:37;;;;;;;18.80;17.30;;;28.80;99.90;;;;;;5075397;28;20524;-78
2023/06/21 08:50:11;;;;;;;17.77;16.23;;;28.70;99.90;;;;;;5076391;28;20496;-77
2023/06/21 08:52:54;;;;;;;;;;;;;;;;;;;;;
2023/06/21 08:55:25;;;;;;;23.40;21.60;;;28.60;99.90;;;;;;5075495;28;20474;-78
2023/06/21 08:57:56;;;;;;;19.90;18.40;;;28.60;99.90;;;;;;5075008;28;20458;-78
2023/06/21 09:00:26;;;;;;;19.80;18.33;;;28.60;99.90;;;;;;5075856;28;20968;-78
2023/06/21 09:03:01;;;;;;;17.33;16.03;;;28.60;99.90;;;;;;5075589;28;20488;-78
2023/06/21 09:05:34;;;;;;;16.63;15.53;;;28.70;99.90;;;;;;5075543;28;20477;-79
2023/06/21 09:08:05;;;;;;;19.17;17.67;;;28.70;99.90;;;;;;5075480;28;20493;-78
2023/06/21 09:10:35;;;;;;;16.83;15.43;;;28.70;99.90;;;;;;5075011;28;20487;-77
2023/06/21 09:13:04;;;;;;;16.57;15.33;;;28.70;99.90;;;;;;5075029;28;20458;-78
2023/06/21 09:15:39;;;;;;;14.57;13.37;;;28.80;99.90;;;;;;5075800;28;20478;-77
2023/06/21 09:18:07;;;;;;;18.30;16.90;;;28.80;99.90;;;;;;5074556;28;20473;-78
2023/06/21 09:20:35;;;;;;;15.67;14.47;;;28.80;99.90;;;;;;5075592;28;20843;-79
2023/06/21 09:23:05;;;;;;;15.37;14.27;;;28.80;99.90;;;;;;5065770;28;20498;-79
2023/06/21 09:25:32;;;;;;;15.17;14.07;;;28.80;99.90;;;;;;5075575;28;20837;-80
2023/06/21 09:28:00;;;;;;;13.43;12.37;;;28.80;99.90;;;;;;5086804;28;20530;-78
2023/06/21 09:30:27;;;;;;;12.53;11.57;;;28.80;99.90;;;;;;5085389;28;20854;-77
2023/06/21 09:32:57;;;;;;;14.97;13.77;;;28.80;99.90;;;;;;5084868;28;20524;-77
2023/06/21 09:35:25;;;;;;;12.40;11.40;;;28.70;99.90;;;;;;5080256;28;20620;-77
2023/06/21 09:37:52;;;;;;;13.97;12.97;;;28.70;99.90;;;;;;5092120;28;20473;-78
2023/06/21 09:40:20;;;;;;;16.50;15.27;;;28.70;99.90;;;;;;5094251;28;20518;-81
2023/06/21 09:42:47;;;;;;;17.40;15.97;;;28.60;99.90;;;;;;5093956;28;20473;-79
2023/06/21 09:45:20;;;;;;;16.93;15.63;;;28.60;99.90;;;;;;5093831;28;20532;-78
2023/06/21 09:47:47;;;;;;;13.83;12.83;;;28.60;99.90;;;;;;5091297;28;20561;-78
2023/06/21 09:50:14;;;;;;;13.93;12.90;;;28.50;99.90;;;;;;5087901;28;20541;-78
2023/06/21 09:52:44;;;;;;;13.77;12.67;;;28.50;99.90;;;;;;5078460;28;20473;-77
2023/06/21 09:55:14;;;;;;;13.20;12.20;;;28.40;99.90;;;;;;5078270;28;20481;-78
2023/06/21 09:57:43;;;;;;;14.60;13.47;;;28.40;99.90;;;;;;5074697;28;20551;-78
2023/06/21 10:00:12;;;;;;;14.97;13.87;;;28.30;99.90;;;;;;5072997;28;20855;-79
2023/06/21 10:02:40;;;;;;;12.50;11.53;;;28.20;99.90;;;;;;5082326;28;20475;-77
2023/06/21 10:05:16;;;;;;;12.80;11.60;;;28.20;99.90;;;;;;5094200;28;20526;-77
2023/06/21 10:07:47;;;;;;;12.10;11.20;;;28.20;99.90;;;;;;5064649;28;21181;-76
2023/06/21 10:10:31;;;;;;;11.40;10.60;;;28.30;99.90;;;;;;5071547;28;20524;-78
2023/06/21 10:13:06;;;;;;;11.30;10.50;;;28.30;99.90;;;;;;5068148;28;20473;-78
2023/06/21 10:15:34;;;;;;;10.53;9.80;;;28.30;99.90;;;;;;5075710;28;20476;-77
2023/06/21 10:18:02;;;;;;;11.07;10.27;;;28.40;99.90;;;;;;5070221;28;20470;-77
2023/06/21 10:20:32;;;;;;;14.03;13.07;;;28.40;99.90;;;;;;5051510;28;20464;-78
2023/06/21 10:23:03;;;;;;;13.00;11.83;;;28.50;99.90;;;;;;5069649;28;20488;-77
2023/06/21 10:25:31;;;;;;;11.43;10.63;;;28.50;99.90;;;;;;5075771;28;20517;-78
2023/06/21 10:28:07;;;;;;;12.27;11.37;;;28.50;99.90;;;;;;5065226;28;20478;-78
2023/06/21 10:30:36;;;;;;;12.27;11.43;;;28.40;99.90;;;;;;5057909;28;20465;-77
2023/06/21 10:33:04;;;;;;;12.47;11.60;;;28.50;99.90;;;;;;5068603;28;20484;-77
2023/06/21 10:35:36;;;;;;;12.00;11.20;;;28.50;99.90;;;;;;5069808;28;20523;-77
2023/06/21 10:38:13;;;;;;;12.20;11.40;;;28.50;99.90;;;;;;5066875;28;20466;-77
2023/06/21 10:40:44;;;;;;;13.20;12.10;;;28.50;99.90;;;;;;5060752;28;20502;-78
2023/06/21 10:43:19;;;;;;;11.60;10.80;;;28.50;99.90;;;;;;5057273;28;20463;-77
2023/06/21 10:45:58;;;;;;;11.40;10.50;;;28.50;99.90;;;;;;5043062;28;20957;-78
2023/06/21 10:48:35;;;;;;;11.53;10.73;;;28.60;99.90;;;;;;5053392;28;20863;-77
2023/06/21 10:51:04;;;;;;;16.77;15.43;;;28.60;99.90;;;;;;5054055;28;21034;-78
2023/06/21 10:53:38;;;;;;;11.50;10.73;;;28.60;99.90;;;;;;5053885;28;20779;-77
2023/06/21 10:56:16;;;;;;;11.57;10.67;;;28.60;99.90;;;;;;5054320;28;20470;-77
2023/06/21 10:58:44;;;;;;;11.60;10.80;;;28.60;99.90;;;;;;5053831;28;20487;-77
2023/06/21 11:01:15;;;;;;;13.33;12.23;;;28.60;99.90;;;;;;5052999;28;20486;-77
2023/06/21 11:03:47;;;;;;;12.77;11.87;;;28.70;99.90;;;;;;5052846;28;20461;-77
2023/06/21 11:06:25;;;;;;;12.97;11.97;;;28.70;99.90;;;;;;5052913;28;20499;-77
2023/06/21 11:08:54;;;;;;;12.13;11.13;;;28.70;99.90;;;;;;5061089;28;20553;-78
2023/06/21 11:11:30;;;;;;;11.83;10.97;;;28.70;99.90;;;;;;5058168;28;20501;-77
2023/06/21 11:14:08;;;;;;;13.20;12.20;;;28.70;99.90;;;;;;5053369;28;20459;-77
2023/06/21 11:16:42;;;;;;;14.43;13.33;;;28.80;99.90;;;;;;5053479;28;20477;-77
2023/06/21 11:19:20;;;;;;;;;;;;;;;;;;;;;
2023/06/21 11:21:49;;;;;;;11.73;10.73;;;28.80;99.90;;;;;;5052385;28;20497;-76
2023/06/21 11:24:19;;;;;;;10.60;9.80;;;28.80;99.90;;;;;;5053339;28;20464;-77
2023/06/21 11:26:58;;;;;;;10.27;9.60;;;28.80;99.90;;;;;;5053410;28;20467;-77
2023/06/21 11:33:18;;;;;;;10.83;9.93;;;28.70;99.90;;;;;;5011463;28;20460;-75
2023/06/21 11:36:02;;;;;;;10.07;9.37;;;28.70;99.90;;;;;;5010581;28;20543;-77
2023/06/21 11:38:31;;;;;;;11.50;10.70;;;28.70;99.90;;;;;;5009654;28;20919;-78
2023/06/21 11:40:58;;;;;;;10.70;9.90;;;28.70;99.90;;;;;;5016237;28;20471;-78
2023/06/21 11:43:29;;;;;;;11.17;10.30;;;28.70;99.90;;;;;;5053610;28;20467;-79
2023/06/21 11:46:00;;;;;;;14.60;13.30;;;28.80;99.90;;;;;;5053066;28;20478;-76
2023/06/21 11:48:27;;;;;;;13.30;12.10;;;28.70;99.90;;;;;;5053546;28;20485;-78
2023/06/21 11:50:55;;;;;;;12.70;11.63;;;28.80;99.90;;;;;;5052913;28;20479;-77
2023/06/21 11:53:32;;;;;;;15.63;14.37;;;28.70;99.90;;;;;;5053100;28;20863;-78
2023/06/21 11:56:03;;;;;;;12.47;11.47;;;28.70;99.90;;;;;;5052618;28;20466;-77
2023/06/21 11:58:30;;;;;;;10.53;9.77;;;28.70;99.90;;;;;;5043284;28;20467;-77
2023/06/21 12:01:00;;;;;;;11.60;10.40;;;28.60;99.90;;;;;;5051910;28;20471;-78
2023/06/21 12:03:32;;;;;;;10.33;9.53;;;28.60;99.90;;;;;;5053144;28;20471;-80
2023/06/21 12:06:03;;;;;;;15.93;14.63;;;28.60;99.90;;;;;;5052298;28;20472;-77
2023/06/21 12:08:32;;;;;;;13.40;12.40;;;28.60;99.90;;;;;;5053308;28;20475;-78
2023/06/21 12:11:03;;;;;;;10.73;9.93;;;28.60;99.90;;;;;;5052685;28;20471;-76
2023/06/21 12:13:32;;;;;;;8.17;7.57;;;28.70;99.90;;;;;;5053010;28;20467;-76
2023/06/21 12:16:03;;;;;;;8.10;7.60;;;28.70;99.90;;;;;;5044858;28;20481;-76
2023/06/21 12:18:31;;;;;;;9.47;8.57;;;28.70;99.90;;;;;;5066213;28;20699;-77
2023/06/21 12:21:06;;;;;;;10.60;9.83;;;28.80;99.90;;;;;;5052871;28;20463;-76
2023/06/21 12:23:34;;;;;;;13.50;12.40;;;28.80;99.90;;;;;;5053152;28;20808;-76
2023/06/21 12:26:11;;;;;;;16.37;15.07;;;28.90;99.90;;;;;;5052835;28;21007;-76
2023/06/21 12:28:49;;;;;;;12.97;11.87;;;28.90;99.90;;;;;;5052660;28;20489;-77
2023/06/21 12:31:26;;;;;;;10.60;9.80;;;28.90;99.90;;;;;;5052981;28;20812;-77
2023/06/21 12:34:03;;;;;;;9.20;8.50;;;28.80;99.90;;;;;;5058466;28;20474;-76
2023/06/21 12:36:32;;;;;;;9.33;8.53;;;28.80;99.90;;;;;;5052871;28;20471;-76
2023/06/21 12:39:04;;;;;;;8.83;8.17;;;28.80;99.90;;;;;;5052219;28;20467;-77
2023/06/21 12:41:32;;;;;;;7.97;7.40;;;28.80;99.90;;;;;;5051786;28;20463;-77
2023/06/21 12:44:20;;;;;;;8.27;7.57;;;28.80;99.90;;;;;;5052448;28;20471;-78
2023/06/21 12:46:48;;;;;;;9.67;8.90;;;28.90;99.90;;;;;;5052004;28;20550;-78